»·PEaware :: DEOAI L52-L88

DEOAI :: L52-L88

FLIGHT INFORMATION

Flight Status: Arrived
Operator: Unknown
More flights by this operator :: More flights under this callsign
Pilot: Thomas S. (17015)
Aircraft: ROBIN DR-400
(DR40)
More flights by this aircraft type
Origin: L52 Oceano Co
United States
Destination: L88 New Cuyama
United States
More flights between these airports :: More routes between these airports
Route:
File this flight plan on PilotEdge
Remarks:
Altitude:
(Current/Filed)
1,000ft
Speed:
(Current/Filed)
120kts
Departed: 30-Jun-18 07:52 AM
Arrived: 30-Jun-18 08:26 AM
Distance/Time
Traveled:
47nm/0:34
Distance/Time
To Go:
Arrived

Flight Plot

Page will automatically refresh every two minutes.


Map Options




Map Legend


Flown Route
Filed Route
Departure Airport
Arrival Airport
Navaid (VOR, NDB)
Fix

Horizontal Profiles

Position Reports

Time Latitude Longitude Heading Altitude Ground
Speed
30-Jun-18 07:41 35.103553 -120.624283 214 14ft 0kts
30-Jun-18 07:42 35.103553 -120.624283 214 14ft 0kts
30-Jun-18 07:43 35.103553 -120.624283 214 14ft 0kts
30-Jun-18 07:44 35.103553 -120.624283 214 14ft 0kts
30-Jun-18 07:45 35.103553 -120.624283 214 14ft 0kts
30-Jun-18 07:46 35.103553 -120.624283 214 14ft 0kts
30-Jun-18 07:47 35.103553 -120.624283 214 14ft 0kts
30-Jun-18 07:48 35.103553 -120.624283 214 14ft 0kts
30-Jun-18 07:49 35.103495 -120.624331 219 14ft 3kts
30-Jun-18 07:50 35.103415 -120.625240 205 13ft 0kts
30-Jun-18 07:51 35.103171 -120.625279 158 13ft 8kts
30-Jun-18 07:52 35.096680 -120.602992 77 484ft 106kts
30-Jun-18 07:53 35.104753 -120.568039 88 904ft 118kts
30-Jun-18 07:54 35.093160 -120.532029 100 1701ft 110kts
30-Jun-18 07:55 35.086796 -120.494061 107 890ft 90kts
30-Jun-18 07:56 35.086451 -120.469656 66 1557ft 90kts
30-Jun-18 07:58 35.103553 -120.624283 214 14ft 0kts
30-Jun-18 07:59 35.103552 -120.624284 214 14ft 0kts
30-Jun-18 08:00 35.103543 -120.624291 213 14ft 0kts
30-Jun-18 08:01 35.103453 -120.624379 227 14ft 4kts
30-Jun-18 08:02 35.098809 -120.617885 129 187ft 90kts
30-Jun-18 08:03 35.094526 -120.583901 97 1180ft 108kts
30-Jun-18 08:04 35.087987 -120.541891 100 1273ft 133kts
30-Jun-18 08:05 35.095943 -120.499128 64 1272ft 133kts
30-Jun-18 08:06 35.092834 -120.458319 135 1267ft 134kts
30-Jun-18 08:07 35.071005 -120.421652 121 1269ft 134kts
30-Jun-18 08:08 35.063700 -120.382968 64 1612ft 124kts
30-Jun-18 08:09 35.056134 -120.344292 108 1824ft 125kts
30-Jun-18 08:10 35.048336 -120.307597 101 2781ft 112kts
30-Jun-18 08:11 35.041059 -120.265960 100 2973ft 134kts
30-Jun-18 08:12 35.033359 -120.221219 100 2972ft 135kts
30-Jun-18 08:13 35.025605 -120.176169 100 2972ft 135kts
30-Jun-18 08:14 35.017873 -120.131354 100 3048ft 130kts
30-Jun-18 08:15 35.011477 -120.094322 100 3715ft 105kts
30-Jun-18 08:16 35.004659 -120.054898 100 3975ft 129kts
30-Jun-18 08:17 34.997980 -120.016441 99 4877ft 103kts
30-Jun-18 08:18 34.991720 -119.980342 100 5406ft 123kts
30-Jun-18 08:19 34.984444 -119.938794 100 4834ft 126kts
30-Jun-18 08:20 34.977107 -119.896788 100 4234ft 126kts
30-Jun-18 08:21 34.969459 -119.853095 100 3281ft 134kts
30-Jun-18 08:22 34.962221 -119.811823 100 2970ft 114kts
30-Jun-18 08:23 34.955687 -119.774581 100 2975ft 111kts
30-Jun-18 08:24 34.949341 -119.737570 95 2927ft 117kts
30-Jun-18 08:25 34.945339 -119.699781 106 2366ft 90kts
30-Jun-18 08:26 34.939467 -119.684324 48 2182ft 3kts
30-Jun-18 08:27 34.941729 -119.689769 299 2159ft 17kts
30-Jun-18 08:28 34.942701 -119.689831 209 2157ft 0kts
30-Jun-18 08:30 34.942701 -119.689831 209 2157ft 0kts
30-Jun-18 08:31 34.942701 -119.689831 209 2157ft 0kts

Navigation Log

Ident Type
Flight plan parsing failed, navigation log unavailable